SEPLC ESOK-ESGG
Flight info
| Callsign | SEPLC |
|---|---|
| Flight time | 0h 43m |
| Altitude | 8000 |
| Route | DCT |
| Aircraft | BE58/L-SDFGRY/C |
Departure
| Time | 2026-05-06 16:42 |
|---|---|
| Airport | Karlstad Airport (ESOK) |
Arrival
| Time | 2026-05-06 17:26 |
|---|---|
| Airport | Göteborg Landvetter Airport (ESGG) |
| Time | Latitude | Longitude | Altitude | Speed | Heading |
|---|---|---|---|---|---|
| 2026-05-06 16:31 | 59.44118 | 13.34145 | 345 ft | 0 kts | 115° |
| 2026-05-06 16:32 | 59.44119 | 13.34141 | 345 ft | 2 kts | 115° |
| 2026-05-06 16:32 | 59.44124 | 13.34119 | 353 ft | 0 kts | 115° |
| 2026-05-06 16:36 | 59.44124 | 13.34123 | 354 ft | 1 kts | 97° |
| 2026-05-06 16:36 | 59.44125 | 13.34130 | 354 ft | 1 kts | 53° |
| 2026-05-06 16:36 | 59.44140 | 13.34145 | 345 ft | 6 kts | 23° |
| 2026-05-06 16:36 | 59.44182 | 13.34161 | 345 ft | 4 kts | 336° |
| 2026-05-06 16:37 | 59.44204 | 13.34110 | 345 ft | 8 kts | 296° |
| 2026-05-06 16:37 | 59.44238 | 13.33965 | 349 ft | 14 kts | 296° |
| 2026-05-06 16:37 | 59.44275 | 13.33812 | 348 ft | 7 kts | 296° |
| 2026-05-06 16:37 | 59.44278 | 13.33802 | 345 ft | 0 kts | 296° |
| 2026-05-06 16:38 | 59.44279 | 13.33795 | 345 ft | 3 kts | 296° |
| 2026-05-06 16:38 | 59.44301 | 13.33708 | 349 ft | 10 kts | 296° |
| 2026-05-06 16:38 | 59.44357 | 13.33639 | 347 ft | 12 kts | 13° |
| 2026-05-06 16:38 | 59.44456 | 13.33724 | 353 ft | 19 kts | 24° |
| 2026-05-06 16:39 | 59.44594 | 13.33853 | 348 ft | 25 kts | 25° |
| 2026-05-06 16:39 | 59.44750 | 13.33999 | 346 ft | 25 kts | 25° |
| 2026-05-06 16:39 | 59.44901 | 13.34143 | 347 ft | 24 kts | 26° |
| 2026-05-06 16:39 | 59.45052 | 13.34285 | 349 ft | 25 kts | 25° |
| 2026-05-06 16:40 | 59.45209 | 13.34433 | 349 ft | 24 kts | 26° |
| 2026-05-06 16:40 | 59.45343 | 13.34559 | 351 ft | 15 kts | 24° |
| 2026-05-06 16:40 | 59.45413 | 13.34686 | 351 ft | 15 kts | 31° |
| 2026-05-06 16:40 | 59.45452 | 13.34659 | 352 ft | 5 kts | 232° |
| 2026-05-06 16:41 | 59.45407 | 13.34618 | 348 ft | 4 kts | 206° |
| 2026-05-06 16:41 | 59.45406 | 13.34617 | 348 ft | 0 kts | 206° |
| 2026-05-06 16:41 | 59.45370 | 13.34583 | 349 ft | 26 kts | 205° |
| 2026-05-06 16:41 | 59.44909 | 13.34136 | 371 ft | 111 kts | 206° |
| 2026-05-06 16:42 | 59.44114 | 13.33397 | 528 ft | 134 kts | 199° |
| 2026-05-06 16:42 | 59.43249 | 13.32629 | 692 ft | 139 kts | 202° |
| 2026-05-06 16:42 | 59.42358 | 13.31804 | 804 ft | 144 kts | 203° |
| 2026-05-06 16:42 | 59.41447 | 13.30950 | 997 ft | 145 kts | 205° |
| 2026-05-06 16:43 | 59.40507 | 13.30199 | 1058 ft | 147 kts | 190° |
| 2026-05-06 16:43 | 59.39521 | 13.30518 | 1190 ft | 147 kts | 152° |
| 2026-05-06 16:43 | 59.38720 | 13.31814 | 1168 ft | 157 kts | 137° |
| 2026-05-06 16:43 | 59.37959 | 13.33377 | 1184 ft | 159 kts | 134° |
| 2026-05-06 16:44 | 59.37232 | 13.35023 | 1192 ft | 160 kts | 131° |
| 2026-05-06 16:44 | 59.36529 | 13.36729 | 1208 ft | 162 kts | 131° |
| 2026-05-06 16:44 | 59.35826 | 13.38455 | 1203 ft | 163 kts | 130° |
| 2026-05-06 16:44 | 59.35136 | 13.40206 | 1207 ft | 161 kts | 133° |
| 2026-05-06 16:45 | 59.34306 | 13.41672 | 1201 ft | 162 kts | 149° |
| 2026-05-06 16:45 | 59.33281 | 13.42528 | 1207 ft | 159 kts | 169° |
| 2026-05-06 16:45 | 59.32192 | 13.42736 | 1189 ft | 157 kts | 184° |
| 2026-05-06 16:45 | 59.31125 | 13.42405 | 1223 ft | 155 kts | 198° |
| 2026-05-06 16:46 | 59.30108 | 13.41695 | 1307 ft | 160 kts | 207° |
| 2026-05-06 16:46 | 59.29090 | 13.40723 | 1571 ft | 165 kts | 210° |
| 2026-05-06 16:46 | 59.28036 | 13.39769 | 1851 ft | 168 kts | 207° |
| 2026-05-06 16:46 | 59.26943 | 13.38879 | 2118 ft | 171 kts | 206° |
| 2026-05-06 16:47 | 59.25843 | 13.38001 | 2411 ft | 171 kts | 205° |
| 2026-05-06 16:47 | 59.24721 | 13.37236 | 2640 ft | 174 kts | 201° |
| 2026-05-06 16:47 | 59.23569 | 13.36486 | 2889 ft | 174 kts | 203° |
| 2026-05-06 16:47 | 59.22411 | 13.35751 | 3115 ft | 176 kts | 199° |
| 2026-05-06 16:48 | 59.21201 | 13.35208 | 3299 ft | 180 kts | 196° |
| 2026-05-06 16:48 | 59.20006 | 13.34587 | 3568 ft | 176 kts | 200° |
| 2026-05-06 16:48 | 59.18825 | 13.33878 | 3749 ft | 179 kts | 201° |
| 2026-05-06 16:48 | 59.17648 | 13.33034 | 3917 ft | 179 kts | 208° |
| 2026-05-06 16:49 | 59.16564 | 13.31891 | 4170 ft | 175 kts | 216° |
| 2026-05-06 16:49 | 59.15585 | 13.30517 | 4417 ft | 173 kts | 223° |
| 2026-05-06 16:49 | 59.14701 | 13.28953 | 4642 ft | 171 kts | 229° |
| 2026-05-06 16:49 | 59.13904 | 13.27265 | 4889 ft | 168 kts | 233° |
| 2026-05-06 16:50 | 59.13190 | 13.25463 | 5104 ft | 168 kts | 238° |
| 2026-05-06 16:50 | 59.12546 | 13.23609 | 5349 ft | 167 kts | 240° |
| 2026-05-06 16:50 | 59.11960 | 13.21628 | 5528 ft | 168 kts | 246° |
| 2026-05-06 16:50 | 59.11620 | 13.20276 | 5672 ft | 167 kts | 248° |
| 2026-05-06 16:51 | 59.11044 | 13.17513 | 5985 ft | 166 kts | 253° |
| 2026-05-06 16:51 | 59.10650 | 13.15390 | 6158 ft | 167 kts | 254° |
| 2026-05-06 16:51 | 59.10287 | 13.13230 | 6303 ft | 170 kts | 255° |
| 2026-05-06 16:51 | 59.09929 | 13.11013 | 6400 ft | 173 kts | 255° |
| 2026-05-06 16:52 | 59.09571 | 13.08768 | 6534 ft | 174 kts | 256° |
| 2026-05-06 16:52 | 59.09212 | 13.06513 | 6687 ft | 175 kts | 255° |
| 2026-05-06 16:52 | 59.08854 | 13.04264 | 6850 ft | 173 kts | 256° |
| 2026-05-06 16:52 | 59.08496 | 13.02027 | 7022 ft | 173 kts | 255° |
| 2026-05-06 16:53 | 59.08093 | 12.99858 | 7202 ft | 172 kts | 249° |
| 2026-05-06 16:53 | 59.07558 | 12.97739 | 7381 ft | 172 kts | 246° |
| 2026-05-06 16:53 | 59.07028 | 12.95699 | 7560 ft | 170 kts | 246° |
| 2026-05-06 16:53 | 59.06457 | 12.93688 | 7736 ft | 172 kts | 236° |
| 2026-05-06 16:54 | 59.05588 | 12.92075 | 7913 ft | 174 kts | 223° |
| 2026-05-06 16:54 | 59.04582 | 12.90665 | 7923 ft | 182 kts | 219° |
| 2026-05-06 16:54 | 59.03519 | 12.89256 | 7931 ft | 187 kts | 218° |
| 2026-05-06 16:54 | 59.02435 | 12.87821 | 7930 ft | 190 kts | 218° |
| 2026-05-06 16:55 | 59.01341 | 12.86366 | 7934 ft | 191 kts | 218° |
| 2026-05-06 16:55 | 59.00239 | 12.84902 | 7934 ft | 193 kts | 218° |
| 2026-05-06 16:55 | 58.99128 | 12.83437 | 7938 ft | 193 kts | 218° |
| 2026-05-06 16:55 | 58.98020 | 12.81969 | 7931 ft | 193 kts | 218° |
| 2026-05-06 16:56 | 58.96900 | 12.80533 | 7928 ft | 194 kts | 216° |
| 2026-05-06 16:56 | 58.95715 | 12.79259 | 7928 ft | 195 kts | 210° |
| 2026-05-06 16:56 | 58.94477 | 12.78160 | 7929 ft | 196 kts | 208° |
| 2026-05-06 16:56 | 58.93232 | 12.77088 | 7930 ft | 195 kts | 208° |
| 2026-05-06 16:57 | 58.91992 | 12.76018 | 7930 ft | 195 kts | 208° |
| 2026-05-06 16:57 | 58.90751 | 12.74943 | 7933 ft | 196 kts | 208° |
| 2026-05-06 16:57 | 58.89520 | 12.73879 | 7932 ft | 196 kts | 208° |
| 2026-05-06 16:57 | 58.88275 | 12.72806 | 7930 ft | 196 kts | 208° |
| 2026-05-06 16:58 | 58.87028 | 12.71733 | 7933 ft | 196 kts | 208° |
| 2026-05-06 16:58 | 58.85779 | 12.70663 | 7929 ft | 196 kts | 208° |
| 2026-05-06 16:58 | 58.84526 | 12.69595 | 7931 ft | 197 kts | 208° |
| 2026-05-06 16:58 | 58.83273 | 12.68528 | 7930 ft | 197 kts | 208° |
| 2026-05-06 16:59 | 58.82020 | 12.67461 | 7929 ft | 197 kts | 208° |
| 2026-05-06 16:59 | 58.80766 | 12.66398 | 7937 ft | 197 kts | 208° |
| 2026-05-06 16:59 | 58.79511 | 12.65334 | 7933 ft | 197 kts | 208° |
| 2026-05-06 16:59 | 58.78243 | 12.64319 | 7928 ft | 198 kts | 205° |
| 2026-05-06 17:00 | 58.76946 | 12.63418 | 7927 ft | 198 kts | 204° |
| 2026-05-06 17:00 | 58.76085 | 12.62826 | 7928 ft | 198 kts | 204° |
| 2026-05-06 17:00 | 58.74786 | 12.61937 | 7928 ft | 198 kts | 204° |
| 2026-05-06 17:00 | 58.73482 | 12.61052 | 7925 ft | 198 kts | 204° |
| 2026-05-06 17:01 | 58.72174 | 12.60167 | 7922 ft | 199 kts | 204° |
| 2026-05-06 17:01 | 58.70868 | 12.59287 | 7923 ft | 199 kts | 204° |
| 2026-05-06 17:01 | 58.69564 | 12.58409 | 7921 ft | 199 kts | 204° |
| 2026-05-06 17:01 | 58.68256 | 12.57531 | 7922 ft | 199 kts | 204° |
| 2026-05-06 17:02 | 58.66969 | 12.56666 | 7918 ft | 199 kts | 204° |
| 2026-05-06 17:02 | 58.65664 | 12.55792 | 7917 ft | 199 kts | 204° |
| 2026-05-06 17:02 | 58.64358 | 12.54918 | 7915 ft | 199 kts | 204° |
| 2026-05-06 17:02 | 58.63038 | 12.54105 | 7912 ft | 201 kts | 199° |
| 2026-05-06 17:03 | 58.61637 | 12.53828 | 7908 ft | 204 kts | 187° |
| 2026-05-06 17:03 | 58.60215 | 12.53771 | 7911 ft | 204 kts | 184° |
| 2026-05-06 17:03 | 58.58791 | 12.53855 | 7910 ft | 205 kts | 182° |
| 2026-05-06 17:03 | 58.57367 | 12.54027 | 7908 ft | 205 kts | 180° |
| 2026-05-06 17:04 | 58.55941 | 12.54232 | 7905 ft | 205 kts | 180° |
| 2026-05-06 17:04 | 58.54517 | 12.54442 | 7904 ft | 205 kts | 180° |
| 2026-05-06 17:04 | 58.53086 | 12.54653 | 7900 ft | 205 kts | 180° |
| 2026-05-06 17:04 | 58.51661 | 12.54862 | 7901 ft | 205 kts | 180° |
| 2026-05-06 17:05 | 58.50237 | 12.55071 | 7901 ft | 205 kts | 180° |
| 2026-05-06 17:05 | 58.48833 | 12.55281 | 7897 ft | 205 kts | 180° |
| 2026-05-06 17:05 | 58.47395 | 12.55492 | 7896 ft | 204 kts | 180° |
| 2026-05-06 17:05 | 58.45979 | 12.55701 | 7896 ft | 204 kts | 180° |
| 2026-05-06 17:06 | 58.44581 | 12.55909 | 7897 ft | 204 kts | 180° |
| 2026-05-06 17:06 | 58.43165 | 12.56120 | 7897 ft | 205 kts | 180° |
| 2026-05-06 17:06 | 58.41744 | 12.56342 | 7895 ft | 205 kts | 180° |
| 2026-05-06 17:06 | 58.40321 | 12.56565 | 7894 ft | 205 kts | 180° |
| 2026-05-06 17:07 | 58.38900 | 12.56791 | 7896 ft | 205 kts | 180° |
| 2026-05-06 17:07 | 58.37482 | 12.57018 | 7893 ft | 204 kts | 180° |
| 2026-05-06 17:07 | 58.36070 | 12.57262 | 7896 ft | 204 kts | 179° |
| 2026-05-06 17:07 | 58.34660 | 12.57570 | 7894 ft | 204 kts | 178° |
| 2026-05-06 17:08 | 58.33245 | 12.57895 | 7897 ft | 205 kts | 178° |
| 2026-05-06 17:08 | 58.31829 | 12.58230 | 7920 ft | 205 kts | 178° |
| 2026-05-06 17:08 | 58.30418 | 12.58562 | 7919 ft | 205 kts | 178° |
| 2026-05-06 17:08 | 58.29001 | 12.58899 | 7922 ft | 205 kts | 179° |
| 2026-05-06 17:09 | 58.27592 | 12.59021 | 7919 ft | 201 kts | 188° |
| 2026-05-06 17:09 | 58.26206 | 12.58782 | 7922 ft | 199 kts | 192° |
| 2026-05-06 17:09 | 58.24824 | 12.58497 | 7922 ft | 200 kts | 192° |
| 2026-05-06 17:09 | 58.23434 | 12.58208 | 7842 ft | 204 kts | 192° |
| 2026-05-06 17:10 | 58.22013 | 12.57908 | 7717 ft | 207 kts | 192° |
| 2026-05-06 17:10 | 58.20550 | 12.58027 | 7579 ft | 217 kts | 171° |
| 2026-05-06 17:10 | 58.19106 | 12.58810 | 7371 ft | 213 kts | 167° |
| 2026-05-06 17:10 | 58.17732 | 12.59620 | 7169 ft | 208 kts | 167° |
| 2026-05-06 17:11 | 58.16365 | 12.60434 | 6960 ft | 204 kts | 167° |
| 2026-05-06 17:11 | 58.15017 | 12.61235 | 6750 ft | 202 kts | 167° |
| 2026-05-06 17:11 | 58.13680 | 12.62018 | 6543 ft | 200 kts | 167° |
| 2026-05-06 17:11 | 58.12351 | 12.62787 | 6340 ft | 200 kts | 167° |
| 2026-05-06 17:12 | 58.11025 | 12.63548 | 6132 ft | 199 kts | 167° |
| 2026-05-06 17:12 | 58.09696 | 12.64270 | 5908 ft | 197 kts | 172° |
| 2026-05-06 17:12 | 58.08360 | 12.64202 | 5689 ft | 191 kts | 196° |
| 2026-05-06 17:12 | 58.07299 | 12.63720 | 5519 ft | 194 kts | 198° |
| 2026-05-06 17:13 | 58.05977 | 12.63096 | 5350 ft | 199 kts | 198° |
| 2026-05-06 17:13 | 58.04617 | 12.62432 | 5198 ft | 205 kts | 198° |
| 2026-05-06 17:13 | 58.03221 | 12.61738 | 5049 ft | 209 kts | 198° |
| 2026-05-06 17:13 | 58.01807 | 12.61025 | 4895 ft | 211 kts | 198° |
| 2026-05-06 17:14 | 58.00381 | 12.60300 | 4741 ft | 212 kts | 198° |
| 2026-05-06 17:14 | 57.98963 | 12.59575 | 4585 ft | 213 kts | 198° |
| 2026-05-06 17:14 | 57.97531 | 12.58836 | 4429 ft | 214 kts | 198° |
| 2026-05-06 17:14 | 57.96094 | 12.58093 | 4268 ft | 210 kts | 198° |
| 2026-05-06 17:15 | 57.94716 | 12.57394 | 4103 ft | 201 kts | 198° |
| 2026-05-06 17:15 | 57.93385 | 12.56728 | 3939 ft | 195 kts | 198° |
| 2026-05-06 17:15 | 57.92083 | 12.56065 | 3776 ft | 193 kts | 198° |
| 2026-05-06 17:15 | 57.90787 | 12.55404 | 3614 ft | 192 kts | 198° |
| 2026-05-06 17:16 | 57.89497 | 12.54751 | 3457 ft | 191 kts | 198° |
| 2026-05-06 17:16 | 57.88214 | 12.54113 | 3295 ft | 190 kts | 198° |
| 2026-05-06 17:16 | 57.86941 | 12.53478 | 3157 ft | 187 kts | 197° |
| 2026-05-06 17:16 | 57.85677 | 12.52984 | 3020 ft | 184 kts | 193° |
| 2026-05-06 17:17 | 57.84432 | 12.52707 | 2927 ft | 181 kts | 187° |
| 2026-05-06 17:17 | 57.83181 | 12.52624 | 2822 ft | 179 kts | 183° |
| 2026-05-06 17:17 | 57.81940 | 12.52701 | 2734 ft | 176 kts | 180° |
| 2026-05-06 17:17 | 57.80726 | 12.52894 | 2641 ft | 176 kts | 178° |
| 2026-05-06 17:18 | 57.79486 | 12.53043 | 2523 ft | 179 kts | 181° |
| 2026-05-06 17:18 | 57.78256 | 12.53013 | 2472 ft | 174 kts | 186° |
| 2026-05-06 17:18 | 57.77053 | 12.53000 | 2376 ft | 171 kts | 181° |
| 2026-05-06 17:18 | 57.75885 | 12.53052 | 2368 ft | 165 kts | 184° |
| 2026-05-06 17:19 | 57.74746 | 12.53053 | 2363 ft | 163 kts | 183° |
| 2026-05-06 17:19 | 57.73616 | 12.52972 | 2350 ft | 162 kts | 187° |
| 2026-05-06 17:19 | 57.72488 | 12.52695 | 2261 ft | 164 kts | 193° |
| 2026-05-06 17:19 | 57.71373 | 12.52169 | 2161 ft | 166 kts | 201° |
| 2026-05-06 17:20 | 57.70303 | 12.51387 | 2032 ft | 164 kts | 208° |
| 2026-05-06 17:20 | 57.69376 | 12.50233 | 1970 ft | 157 kts | 229° |
| 2026-05-06 17:20 | 57.68755 | 12.48563 | 1807 ft | 158 kts | 246° |
| 2026-05-06 17:20 | 57.68301 | 12.46674 | 1634 ft | 159 kts | 253° |
| 2026-05-06 17:21 | 57.68112 | 12.44692 | 1502 ft | 150 kts | 274° |
| 2026-05-06 17:21 | 57.68356 | 12.42787 | 1467 ft | 156 kts | 295° |
| 2026-05-06 17:21 | 57.69023 | 12.41147 | 1477 ft | 161 kts | 318° |
| 2026-05-06 17:21 | 57.69948 | 12.39990 | 1525 ft | 161 kts | 332° |
| 2026-05-06 17:22 | 57.70982 | 12.39150 | 1506 ft | 161 kts | 340° |
| 2026-05-06 17:22 | 57.72048 | 12.38677 | 1564 ft | 155 kts | 346° |
| 2026-05-06 17:22 | 57.73082 | 12.38243 | 1602 ft | 150 kts | 344° |
| 2026-05-06 17:22 | 57.74042 | 12.37456 | 1578 ft | 155 kts | 326° |
| 2026-05-06 17:23 | 57.74821 | 12.36100 | 1634 ft | 148 kts | 306° |
| 2026-05-06 17:23 | 57.75059 | 12.34316 | 1693 ft | 144 kts | 265° |
| 2026-05-06 17:23 | 57.74580 | 12.32690 | 1692 ft | 148 kts | 221° |
| 2026-05-06 17:23 | 57.73586 | 12.32182 | 1686 ft | 155 kts | 182° |
| 2026-05-06 17:24 | 57.72516 | 12.32312 | 1621 ft | 153 kts | 179° |
| 2026-05-06 17:24 | 57.71529 | 12.32309 | 1538 ft | 136 kts | 187° |
| 2026-05-06 17:24 | 57.70604 | 12.32006 | 1369 ft | 131 kts | 202° |
| 2026-05-06 17:24 | 57.69802 | 12.31314 | 1125 ft | 126 kts | 213° |
| 2026-05-06 17:25 | 57.69025 | 12.30531 | 928 ft | 128 kts | 213° |
| 2026-05-06 17:25 | 57.68235 | 12.29768 | 733 ft | 125 kts | 211° |
| 2026-05-06 17:25 | 57.67479 | 12.29071 | 547 ft | 117 kts | 213° |
| 2026-05-06 17:25 | 57.66785 | 12.28441 | 511 ft | 105 kts | 211° |
| 2026-05-06 17:26 | 57.66221 | 12.27919 | 504 ft | 71 kts | 204° |
| 2026-05-06 17:26 | 57.65994 | 12.27721 | 501 ft | 23 kts | 200° |
| 2026-05-06 17:26 | 57.65835 | 12.27665 | 499 ft | 25 kts | 181° |
| 2026-05-06 17:26 | 57.65722 | 12.27716 | 499 ft | 11 kts | 129° |
| 2026-05-06 17:27 | 57.65713 | 12.27759 | 499 ft | 0 kts | 98° |
| 2026-05-06 17:27 | 57.65718 | 12.27798 | 499 ft | 7 kts | 55° |
| 2026-05-06 17:27 | 57.65782 | 12.27866 | 500 ft | 14 kts | 28° |
| 2026-05-06 17:27 | 57.65868 | 12.27948 | 501 ft | 15 kts | 25° |
| 2026-05-06 17:28 | 57.65954 | 12.28026 | 502 ft | 15 kts | 26° |
| 2026-05-06 17:28 | 57.66067 | 12.28129 | 503 ft | 21 kts | 26° |
| 2026-05-06 17:28 | 57.66209 | 12.28258 | 504 ft | 23 kts | 26° |
| 2026-05-06 17:28 | 57.66358 | 12.28393 | 505 ft | 25 kts | 27° |
| 2026-05-06 17:29 | 57.66516 | 12.28538 | 506 ft | 25 kts | 26° |
| 2026-05-06 17:29 | 57.66649 | 12.28659 | 506 ft | 19 kts | 26° |
| 2026-05-06 17:29 | 57.66756 | 12.28758 | 507 ft | 17 kts | 24° |
| 2026-05-06 17:29 | 57.66872 | 12.28861 | 507 ft | 18 kts | 27° |
| 2026-05-06 17:30 | 57.66956 | 12.28938 | 508 ft | 11 kts | 28° |
| 2026-05-06 17:30 | 57.67024 | 12.29002 | 508 ft | 8 kts | 33° |
| 2026-05-06 17:30 | 57.67040 | 12.29081 | 508 ft | 8 kts | 102° |
| 2026-05-06 17:30 | 57.67016 | 12.29177 | 510 ft | 9 kts | 116° |
| 2026-05-06 17:31 | 57.66991 | 12.29273 | 510 ft | 6 kts | 115° |
| 2026-05-06 17:31 | 57.66971 | 12.29332 | 510 ft | 2 kts | 158° |
| 2026-05-06 17:31 | 57.66960 | 12.29317 | 510 ft | 4 kts | 262° |
| 2026-05-06 17:31 | 57.66953 | 12.29272 | 510 ft | 3 kts | 251° |
| 2026-05-06 17:32 | 57.66945 | 12.29229 | 510 ft | 3 kts | 251° |
| 2026-05-06 17:32 | 57.66944 | 12.29222 | 510 ft | 0 kts | 251° |